sensor_id;sensor_type;location;lat;lon;timestamp;pressure;altitude;pressure_sealevel;temperature;humidity
62978;BME280;49073;42.352;23.808;2022-09-20T00:00:13;94663.72;;;11.98;57.98
62978;BME280;49073;42.352;23.808;2022-09-20T00:03:15;94666.38;;;11.94;58.69
62978;BME280;49073;42.352;23.808;2022-09-20T00:06:19;94663.19;;;11.85;58.46
62978;BME280;49073;42.352;23.808;2022-09-20T00:09:20;94660.84;;;11.79;57.97
62978;BME280;49073;42.352;23.808;2022-09-20T00:12:20;94665.31;;;11.72;58.08
62978;BME280;49073;42.352;23.808;2022-09-20T00:15:21;94659.50;;;11.66;57.89
62978;BME280;49073;42.352;23.808;2022-09-20T00:18:22;94649.13;;;11.61;57.85
62978;BME280;49073;42.352;23.808;2022-09-20T00:21:26;94657.56;;;11.63;57.63
62978;BME280;49073;42.352;23.808;2022-09-20T00:24:27;94657.97;;;11.65;57.61
62978;BME280;49073;42.352;23.808;2022-09-20T00:27:28;94660.19;;;11.59;58.51
62978;BME280;49073;42.352;23.808;2022-09-20T00:30:28;94662.16;;;11.66;59.21
62978;BME280;49073;42.352;23.808;2022-09-20T00:33:30;94659.91;;;11.68;58.94
62978;BME280;49073;42.352;23.808;2022-09-20T00:36:49;94659.25;;;11.75;58.81
62978;BME280;49073;42.352;23.808;2022-09-20T00:39:49;94666.06;;;11.72;58.82
62978;BME280;49073;42.352;23.808;2022-09-20T00:42:50;94660.47;;;11.81;59.30
62978;BME280;49073;42.352;23.808;2022-09-20T00:45:50;94657.97;;;11.65;59.32
62978;BME280;49073;42.352;23.808;2022-09-20T00:48:55;94657.63;;;11.67;57.17
62978;BME280;49073;42.352;23.808;2022-09-20T00:51:59;94659.56;;;11.70;57.21
62978;BME280;49073;42.352;23.808;2022-09-20T00:55:04;94655.38;;;11.72;56.86
62978;BME280;49073;42.352;23.808;2022-09-20T00:58:07;94663.47;;;11.76;57.17
62978;BME280;49073;42.352;23.808;2022-09-20T01:01:09;94659.88;;;11.64;56.85
62978;BME280;49073;42.352;23.808;2022-09-20T01:04:11;94657.16;;;11.61;57.81
62978;BME280;49073;42.352;23.808;2022-09-20T01:07:15;94649.94;;;11.65;56.76
62978;BME280;49073;42.352;23.808;2022-09-20T01:10:16;94651.22;;;11.48;56.86
62978;BME280;49073;42.352;23.808;2022-09-20T01:13:17;94646.28;;;11.46;56.85
62978;BME280;49073;42.352;23.808;2022-09-20T01:16:18;94639.19;;;11.58;57.70
62978;BME280;49073;42.352;23.808;2022-09-20T01:26:42;94652.84;;;11.53;57.10
62978;BME280;49073;42.352;23.808;2022-09-20T01:30:07;94652.97;;;11.37;57.15
62978;BME280;49073;42.352;23.808;2022-09-20T01:33:22;94654.53;;;11.38;57.52
62978;BME280;49073;42.352;23.808;2022-09-20T01:36:46;94655.09;;;11.50;57.03
62978;BME280;49073;42.352;23.808;2022-09-20T02:02:59;94652.44;;;11.50;56.05
62978;BME280;49073;42.352;23.808;2022-09-20T02:12:58;94673.09;;;11.30;56.36
62978;BME280;49073;42.352;23.808;2022-09-20T02:22:47;94668.75;;;11.45;55.91
62978;BME280;49073;42.352;23.808;2022-09-20T02:33:11;94680.19;;;11.46;56.35
62978;BME280;49073;42.352;23.808;2022-09-20T02:36:29;94676.75;;;11.45;56.97
62978;BME280;49073;42.352;23.808;2022-09-20T02:39:42;94670.53;;;11.38;58.30
62978;BME280;49073;42.352;23.808;2022-09-20T02:43:00;94677.84;;;11.17;57.66
62978;BME280;49073;42.352;23.808;2022-09-20T02:49:27;94683.34;;;11.05;57.87
62978;BME280;49073;42.352;23.808;2022-09-20T02:52:41;94691.66;;;11.00;58.09
62978;BME280;49073;42.352;23.808;2022-09-20T03:11:55;94701.41;;;10.49;59.39
62978;BME280;49073;42.352;23.808;2022-09-20T03:15:43;94704.38;;;10.28;59.34
62978;BME280;49073;42.352;23.808;2022-09-20T03:19:09;94707.75;;;10.25;60.43
62978;BME280;49073;42.352;23.808;2022-09-20T03:25:40;94711.75;;;10.15;59.32
62978;BME280;49073;42.352;23.808;2022-09-20T03:38:55;94710.13;;;10.10;58.23
62978;BME280;49073;42.352;23.808;2022-09-20T03:42:13;94710.59;;;9.96;58.42
62978;BME280;49073;42.352;23.808;2022-09-20T03:48:47;94715.53;;;9.78;60.52
62978;BME280;49073;42.352;23.808;2022-09-20T03:59:10;94721.66;;;9.98;58.41
62978;BME280;49073;42.352;23.808;2022-09-20T04:02:35;94723.84;;;9.93;57.75
62978;BME280;49073;42.352;23.808;2022-09-20T04:19:11;94744.69;;;10.07;57.14
62978;BME280;49073;42.352;23.808;2022-09-20T04:22:14;94748.47;;;10.06;57.48
62978;BME280;49073;42.352;23.808;2022-09-20T04:25:27;94750.63;;;9.84;57.40
62978;BME280;49073;42.352;23.808;2022-09-20T04:39:23;94764.03;;;9.71;59.70
62978;BME280;49073;42.352;23.808;2022-09-20T04:56:48;94744.13;;;9.33;61.44
62978;BME280;49073;42.352;23.808;2022-09-20T05:00:08;94755.13;;;9.31;61.89
62978;BME280;49073;42.352;23.808;2022-09-20T05:04:36;94763.53;;;9.34;62.46
62978;BME280;49073;42.352;23.808;2022-09-20T05:07:44;94764.47;;;9.41;62.96
62978;BME280;49073;42.352;23.808;2022-09-20T05:14:27;94762.94;;;9.40;63.34
62978;BME280;49073;42.352;23.808;2022-09-20T05:21:47;94778.31;;;9.63;62.25
62978;BME280;49073;42.352;23.808;2022-09-20T05:28:18;94767.72;;;9.83;61.13
62978;BME280;49073;42.352;23.808;2022-09-20T05:31:33;94771.13;;;9.99;61.12
62978;BME280;49073;42.352;23.808;2022-09-20T05:34:44;94775.84;;;10.06;60.03
62978;BME280;49073;42.352;23.808;2022-09-20T05:38:10;94772.00;;;10.03;59.98
62978;BME280;49073;42.352;23.808;2022-09-20T05:41:58;94774.56;;;10.00;60.37
62978;BME280;49073;42.352;23.808;2022-09-20T06:05:57;94772.16;;;10.66;58.37
62978;BME280;49073;42.352;23.808;2022-09-20T06:22:38;94771.56;;;11.39;56.39
62978;BME280;49073;42.352;23.808;2022-09-20T06:25:43;94766.28;;;11.43;56.43
62978;BME280;49073;42.352;23.808;2022-09-20T06:28:50;94771.28;;;11.44;56.57
62978;BME280;49073;42.352;23.808;2022-09-20T06:31:53;94780.19;;;11.52;55.41
62978;BME280;49073;42.352;23.808;2022-09-20T06:34:54;94772.94;;;11.53;56.12
62978;BME280;49073;42.352;23.808;2022-09-20T06:38:10;94773.41;;;11.58;55.35
62978;BME280;49073;42.352;23.808;2022-09-20T06:41:35;94771.31;;;11.71;55.67
62978;BME280;49073;42.352;23.808;2022-09-20T06:44:36;94774.38;;;11.73;54.14
62978;BME280;49073;42.352;23.808;2022-09-20T06:47:40;94765.63;;;11.73;54.33
62978;BME280;49073;42.352;23.808;2022-09-20T06:50:41;94775.28;;;11.81;54.93
62978;BME280;49073;42.352;23.808;2022-09-20T06:53:45;94782.16;;;11.82;54.23
62978;BME280;49073;42.352;23.808;2022-09-20T06:56:46;94779.69;;;11.97;52.94
62978;BME280;49073;42.352;23.808;2022-09-20T06:59:48;94778.44;;;12.14;52.57
62978;BME280;49073;42.352;23.808;2022-09-20T07:02:48;94784.97;;;12.16;49.79
62978;BME280;49073;42.352;23.808;2022-09-20T07:05:49;94785.50;;;12.26;49.51
62978;BME280;49073;42.352;23.808;2022-09-20T07:08:49;94788.50;;;12.24;48.86
62978;BME280;49073;42.352;23.808;2022-09-20T07:11:50;94779.44;;;12.32;49.61
62978;BME280;49073;42.352;23.808;2022-09-20T07:14:51;94783.50;;;12.49;50.07
62978;BME280;49073;42.352;23.808;2022-09-20T07:17:51;94793.53;;;12.56;49.83
62978;BME280;49073;42.352;23.808;2022-09-20T07:20:52;94784.38;;;12.57;48.86
62978;BME280;49073;42.352;23.808;2022-09-20T07:23:53;94789.31;;;12.55;49.26
62978;BME280;49073;42.352;23.808;2022-09-20T07:27:01;94784.72;;;12.56;49.35
62978;BME280;49073;42.352;23.808;2022-09-20T07:30:03;94788.09;;;12.49;48.89
62978;BME280;49073;42.352;23.808;2022-09-20T07:33:03;94779.34;;;12.52;49.06
62978;BME280;49073;42.352;23.808;2022-09-20T07:36:04;94793.75;;;12.44;48.49
62978;BME280;49073;42.352;23.808;2022-09-20T07:39:04;94782.44;;;12.58;49.74
62978;BME280;49073;42.352;23.808;2022-09-20T07:42:05;94785.91;;;12.58;48.51
62978;BME280;49073;42.352;23.808;2022-09-20T07:45:06;94790.13;;;12.59;48.79
62978;BME280;49073;42.352;23.808;2022-09-20T07:48:07;94782.66;;;12.76;48.53
62978;BME280;49073;42.352;23.808;2022-09-20T07:51:10;94783.94;;;12.86;48.70
62978;BME280;49073;42.352;23.808;2022-09-20T07:54:12;94784.22;;;13.11;50.83
62978;BME280;49073;42.352;23.808;2022-09-20T07:57:12;94779.34;;;13.20;49.08
62978;BME280;49073;42.352;23.808;2022-09-20T08:00:13;94781.28;;;13.23;48.82
62978;BME280;49073;42.352;23.808;2022-09-20T08:03:13;94776.38;;;13.33;48.41
62978;BME280;49073;42.352;23.808;2022-09-20T08:06:14;94772.16;;;13.32;48.87
62978;BME280;49073;42.352;23.808;2022-09-20T08:09:15;94776.31;;;13.26;49.18
62978;BME280;49073;42.352;23.808;2022-09-20T08:12:15;94786.22;;;13.21;48.60
62978;BME280;49073;42.352;23.808;2022-09-20T08:15:19;94789.13;;;13.43;49.24
62978;BME280;49073;42.352;23.808;2022-09-20T08:18:19;94779.25;;;13.51;48.23
62978;BME280;49073;42.352;23.808;2022-09-20T08:21:20;94791.88;;;13.50;48.28
62978;BME280;49073;42.352;23.808;2022-09-20T08:24:20;94773.59;;;13.60;48.72
62978;BME280;49073;42.352;23.808;2022-09-20T08:27:21;94770.44;;;13.50;48.06
62978;BME280;49073;42.352;23.808;2022-09-20T08:30:21;94763.31;;;13.65;48.98
62978;BME280;49073;42.352;23.808;2022-09-20T08:33:22;94760.66;;;13.69;47.65
62978;BME280;49073;42.352;23.808;2022-09-20T08:36:24;94757.59;;;13.67;47.68
62978;BME280;49073;42.352;23.808;2022-09-20T08:39:25;94767.16;;;13.68;46.86
62978;BME280;49073;42.352;23.808;2022-09-20T08:42:35;94761.09;;;13.75;47.71
62978;BME280;49073;42.352;23.808;2022-09-20T08:45:37;94758.13;;;13.87;48.25
62978;BME280;49073;42.352;23.808;2022-09-20T08:48:38;94755.09;;;13.96;46.45
62978;BME280;49073;42.352;23.808;2022-09-20T08:51:40;94744.81;;;14.02;46.12
62978;BME280;49073;42.352;23.808;2022-09-20T08:54:41;94744.44;;;14.00;46.34
62978;BME280;49073;42.352;23.808;2022-09-20T08:57:47;94734.16;;;14.13;46.85
62978;BME280;49073;42.352;23.808;2022-09-20T09:00:48;94734.59;;;14.25;46.96
62978;BME280;49073;42.352;23.808;2022-09-20T09:03:50;94729.28;;;14.29;46.34
62978;BME280;49073;42.352;23.808;2022-09-20T09:06:51;94741.94;;;14.32;46.33
62978;BME280;49073;42.352;23.808;2022-09-20T09:09:53;94728.84;;;14.23;45.10
62978;BME280;49073;42.352;23.808;2022-09-20T09:12:56;94716.72;;;14.48;46.36
62978;BME280;49073;42.352;23.808;2022-09-20T09:16:01;94721.41;;;14.73;45.38
62978;BME280;49073;42.352;23.808;2022-09-20T09:22:47;94715.72;;;14.89;44.18
62978;BME280;49073;42.352;23.808;2022-09-20T09:26:02;94705.78;;;15.04;44.64
62978;BME280;49073;42.352;23.808;2022-09-20T09:32:25;94704.66;;;15.70;43.98
62978;BME280;49073;42.352;23.808;2022-09-20T09:35:30;94709.28;;;15.59;43.51
62978;BME280;49073;42.352;23.808;2022-09-20T09:38:33;94703.16;;;15.47;43.93
62978;BME280;49073;42.352;23.808;2022-09-20T09:41:34;94698.91;;;15.35;43.63
62978;BME280;49073;42.352;23.808;2022-09-20T09:44:36;94695.47;;;15.56;43.11
62978;BME280;49073;42.352;23.808;2022-09-20T09:47:37;94679.34;;;15.46;43.18
62978;BME280;49073;42.352;23.808;2022-09-20T09:50:37;94687.41;;;15.46;43.21
62978;BME280;49073;42.352;23.808;2022-09-20T09:53:39;94681.63;;;15.76;42.92
62978;BME280;49073;42.352;23.808;2022-09-20T09:56:52;94680.09;;;15.71;42.99
62978;BME280;49073;42.352;23.808;2022-09-20T10:03:29;94669.34;;;15.97;43.11
62978;BME280;49073;42.352;23.808;2022-09-20T10:06:57;94665.44;;;16.12;43.47
62978;BME280;49073;42.352;23.808;2022-09-20T10:30:21;94652.22;;;16.54;42.12
62978;BME280;49073;42.352;23.808;2022-09-20T10:36:54;94660.97;;;16.69;41.20
62978;BME280;49073;42.352;23.808;2022-09-20T10:40:15;94666.81;;;16.53;41.07
62978;BME280;49073;42.352;23.808;2022-09-20T11:10:40;94643.97;;;17.40;40.24
62978;BME280;49073;42.352;23.808;2022-09-20T11:17:21;94634.81;;;17.30;40.47
62978;BME280;49073;42.352;23.808;2022-09-20T11:20:33;94624.97;;;17.58;40.52
62978;BME280;49073;42.352;23.808;2022-09-20T11:23:39;94629.47;;;17.68;40.89
62978;BME280;49073;42.352;23.808;2022-09-20T11:26:48;94623.63;;;17.77;39.22
62978;BME280;49073;42.352;23.808;2022-09-20T11:30:00;94619.19;;;17.56;41.05
62978;BME280;49073;42.352;23.808;2022-09-20T11:33:12;94613.00;;;17.59;39.66
62978;BME280;49073;42.352;23.808;2022-09-20T11:37:17;94611.84;;;17.60;39.00
62978;BME280;49073;42.352;23.808;2022-09-20T11:39:52;94607.34;;;17.50;39.51
62978;BME280;49073;42.352;23.808;2022-09-20T11:42:55;94621.09;;;17.59;39.24
62978;BME280;49073;42.352;23.808;2022-09-20T11:46:01;94620.63;;;17.68;39.85
62978;BME280;49073;42.352;23.808;2022-09-20T11:52:51;94622.78;;;17.42;39.85
62978;BME280;49073;42.352;23.808;2022-09-20T11:59:05;94608.34;;;17.63;39.17
62978;BME280;49073;42.352;23.808;2022-09-20T12:02:21;94610.13;;;17.39;40.03
62978;BME280;49073;42.352;23.808;2022-09-20T12:05:33;94606.47;;;17.56;39.12
62978;BME280;49073;42.352;23.808;2022-09-20T12:08:38;94606.75;;;17.69;39.50
62978;BME280;49073;42.352;23.808;2022-09-20T12:11:39;94598.31;;;17.67;38.78
62978;BME280;49073;42.352;23.808;2022-09-20T12:14:41;94613.91;;;17.83;39.42
62978;BME280;49073;42.352;23.808;2022-09-20T12:26:54;94613.47;;;17.88;39.22
62978;BME280;49073;42.352;23.808;2022-09-20T12:30:15;94602.78;;;17.81;37.79
62978;BME280;49073;42.352;23.808;2022-09-20T12:33:18;94607.38;;;17.81;38.38
62978;BME280;49073;42.352;23.808;2022-09-20T12:36:20;94607.38;;;17.84;38.50
62978;BME280;49073;42.352;23.808;2022-09-20T12:39:24;94600.09;;;17.81;38.33
62978;BME280;49073;42.352;23.808;2022-09-20T12:42:29;94594.72;;;17.78;37.91
62978;BME280;49073;42.352;23.808;2022-09-20T12:45:31;94587.69;;;17.87;38.52
62978;BME280;49073;42.352;23.808;2022-09-20T12:48:35;94584.63;;;17.85;37.80
62978;BME280;49073;42.352;23.808;2022-09-20T12:51:36;94596.06;;;17.97;38.28
62978;BME280;49073;42.352;23.808;2022-09-20T12:54:55;94593.00;;;17.60;37.40
62978;BME280;49073;42.352;23.808;2022-09-20T13:07:42;94596.41;;;17.22;39.56
62978;BME280;49073;42.352;23.808;2022-09-20T13:10:49;94595.75;;;17.11;38.11
62978;BME280;49073;42.352;23.808;2022-09-20T13:17:16;94599.75;;;16.84;38.06
62978;BME280;49073;42.352;23.808;2022-09-20T13:20:25;94585.75;;;17.08;38.56
62978;BME280;49073;42.352;23.808;2022-09-20T13:23:30;94600.28;;;17.21;37.17
62978;BME280;49073;42.352;23.808;2022-09-20T13:26:43;94600.50;;;16.85;37.03
62978;BME280;49073;42.352;23.808;2022-09-20T13:29:44;94597.78;;;16.92;37.84
62978;BME280;49073;42.352;23.808;2022-09-20T13:32:46;94592.56;;;17.23;37.72
62978;BME280;49073;42.352;23.808;2022-09-20T13:35:49;94603.69;;;17.25;37.78
62978;BME280;49073;42.352;23.808;2022-09-20T13:38:52;94593.81;;;17.11;37.20
62978;BME280;49073;42.352;23.808;2022-09-20T13:41:59;94596.13;;;17.13;37.08
62978;BME280;49073;42.352;23.808;2022-09-20T13:45:02;94595.75;;;17.07;36.67
62978;BME280;49073;42.352;23.808;2022-09-20T13:48:08;94599.69;;;16.99;36.67
62978;BME280;49073;42.352;23.808;2022-09-20T13:51:38;94604.72;;;16.90;36.93
62978;BME280;49073;42.352;23.808;2022-09-20T13:54:39;94600.94;;;16.76;36.75
62978;BME280;49073;42.352;23.808;2022-09-20T13:57:39;94601.00;;;16.72;36.75
62978;BME280;49073;42.352;23.808;2022-09-20T14:00:45;94607.78;;;16.88;38.01
62978;BME280;49073;42.352;23.808;2022-09-20T14:03:46;94601.50;;;16.53;37.24
62978;BME280;49073;42.352;23.808;2022-09-20T14:06:48;94600.31;;;16.57;38.41
62978;BME280;49073;42.352;23.808;2022-09-20T14:09:49;94593.72;;;16.66;37.77
62978;BME280;49073;42.352;23.808;2022-09-20T14:12:51;94605.22;;;16.73;38.30
62978;BME280;49073;42.352;23.808;2022-09-20T14:15:52;94598.78;;;16.56;37.19
62978;BME280;49073;42.352;23.808;2022-09-20T14:18:53;94599.97;;;16.52;38.73
62978;BME280;49073;42.352;23.808;2022-09-20T14:21:55;94602.66;;;16.52;37.76
62978;BME280;49073;42.352;23.808;2022-09-20T14:25:16;94601.94;;;16.44;37.62
62978;BME280;49073;42.352;23.808;2022-09-20T14:28:18;94594.66;;;16.37;36.97
62978;BME280;49073;42.352;23.808;2022-09-20T14:34:19;94600.03;;;16.37;37.31
62978;BME280;49073;42.352;23.808;2022-09-20T14:37:24;94610.09;;;16.26;37.59
62978;BME280;49073;42.352;23.808;2022-09-20T14:40:40;94612.03;;;16.25;38.17
62978;BME280;49073;42.352;23.808;2022-09-20T14:43:42;94611.22;;;16.28;38.09
62978;BME280;49073;42.352;23.808;2022-09-20T14:46:43;94611.28;;;16.18;38.31
62978;BME280;49073;42.352;23.808;2022-09-20T14:49:43;94606.31;;;16.09;38.69
62978;BME280;49073;42.352;23.808;2022-09-20T14:52:44;94615.53;;;16.08;38.62
62978;BME280;49073;42.352;23.808;2022-09-20T15:05:16;94620.22;;;15.93;38.91
62978;BME280;49073;42.352;23.808;2022-09-20T15:08:18;94617.50;;;15.82;39.49
62978;BME280;49073;42.352;23.808;2022-09-20T15:11:19;94625.63;;;15.67;38.70
62978;BME280;49073;42.352;23.808;2022-09-20T15:14:19;94630.22;;;15.56;39.29
62978;BME280;49073;42.352;23.808;2022-09-20T15:17:20;94631.78;;;15.46;39.40
62978;BME280;49073;42.352;23.808;2022-09-20T15:20:21;94626.41;;;15.32;39.59
62978;BME280;49073;42.352;23.808;2022-09-20T15:23:22;94637.16;;;15.17;39.55
62978;BME280;49073;42.352;23.808;2022-09-20T15:26:23;94636.41;;;15.09;39.82
62978;BME280;49073;42.352;23.808;2022-09-20T15:29:23;94642.91;;;15.01;40.02
62978;BME280;49073;42.352;23.808;2022-09-20T15:32:23;94637.53;;;15.05;39.69
62978;BME280;49073;42.352;23.808;2022-09-20T15:35:24;94645.59;;;14.97;39.13
62978;BME280;49073;42.352;23.808;2022-09-20T15:38:24;94640.22;;;14.94;39.94
62978;BME280;49073;42.352;23.808;2022-09-20T15:41:26;94636.78;;;14.93;39.95
62978;BME280;49073;42.352;23.808;2022-09-20T15:44:27;94646.72;;;14.93;40.16
62978;BME280;49073;42.352;23.808;2022-09-20T15:47:27;94644.41;;;14.80;40.29
62978;BME280;49073;42.352;23.808;2022-09-20T15:50:28;94639.81;;;14.74;41.05
62978;BME280;49073;42.352;23.808;2022-09-20T15:53:36;94642.88;;;14.72;42.63
62978;BME280;49073;42.352;23.808;2022-09-20T15:56:37;94651.59;;;14.51;41.13
62978;BME280;49073;42.352;23.808;2022-09-20T15:59:39;94651.59;;;14.51;41.96
62978;BME280;49073;42.352;23.808;2022-09-20T16:02:40;94643.97;;;14.60;42.09
62978;BME280;49073;42.352;23.808;2022-09-20T16:05:40;94641.69;;;14.59;40.97
62978;BME280;49073;42.352;23.808;2022-09-20T16:08:42;94641.69;;;14.59;41.83
62978;BME280;49073;42.352;23.808;2022-09-20T16:11:42;94652.78;;;14.53;42.64
62978;BME280;49073;42.352;23.808;2022-09-20T16:14:43;94651.94;;;14.35;42.44
62978;BME280;49073;42.352;23.808;2022-09-20T16:17:43;94655.78;;;14.37;41.93
62978;BME280;49073;42.352;23.808;2022-09-20T16:21:07;94663.44;;;14.35;42.72
62978;BME280;49073;42.352;23.808;2022-09-20T16:24:10;94657.66;;;14.26;42.93
62978;BME280;49073;42.352;23.808;2022-09-20T16:27:13;94659.16;;;14.20;43.67
62978;BME280;49073;42.352;23.808;2022-09-20T16:30:17;94662.63;;;14.24;44.64
62978;BME280;49073;42.352;23.808;2022-09-20T16:33:18;94671.75;;;14.12;46.20
62978;BME280;49073;42.352;23.808;2022-09-20T16:36:19;94678.16;;;13.93;45.72
62978;BME280;49073;42.352;23.808;2022-09-20T16:39:24;94682.00;;;13.92;46.69
62978;BME280;49073;42.352;23.808;2022-09-20T16:42:27;94681.13;;;13.77;47.04
62978;BME280;49073;42.352;23.808;2022-09-20T16:45:29;94680.78;;;13.78;47.87
62978;BME280;49073;42.352;23.808;2022-09-20T16:48:29;94685.25;;;13.60;47.87
62978;BME280;49073;42.352;23.808;2022-09-20T16:51:32;94693.81;;;13.35;49.05
62978;BME280;49073;42.352;23.808;2022-09-20T16:54:34;94689.91;;;13.25;48.09
62978;BME280;49073;42.352;23.808;2022-09-20T16:57:34;94686.47;;;13.24;47.71
62978;BME280;49073;42.352;23.808;2022-09-20T17:00:37;94692.38;;;13.00;48.81
62978;BME280;49073;42.352;23.808;2022-09-20T17:03:38;94700.00;;;12.98;49.53
62978;BME280;49073;42.352;23.808;2022-09-20T17:06:40;94701.38;;;12.80;50.57
62978;BME280;49073;42.352;23.808;2022-09-20T17:09:42;94695.03;;;12.62;50.30
62978;BME280;49073;42.352;23.808;2022-09-20T17:12:43;94693.97;;;12.66;50.43
62978;BME280;49073;42.352;23.808;2022-09-20T17:15:45;94702.44;;;12.72;50.25
62978;BME280;49073;42.352;23.808;2022-09-20T17:19:05;94696.63;;;12.66;49.01
62978;BME280;49073;42.352;23.808;2022-09-20T17:22:06;94703.56;;;12.71;49.60
62978;BME280;49073;42.352;23.808;2022-09-20T17:25:08;94701.66;;;12.72;50.02
62978;BME280;49073;42.352;23.808;2022-09-20T17:28:08;94707.44;;;12.77;49.28
62978;BME280;49073;42.352;23.808;2022-09-20T17:31:14;94705.78;;;12.65;50.47
62978;BME280;49073;42.352;23.808;2022-09-20T17:34:15;94714.47;;;12.55;50.74
62978;BME280;49073;42.352;23.808;2022-09-20T17:37:16;94716.41;;;12.58;51.98
62978;BME280;49073;42.352;23.808;2022-09-20T17:40:17;94729.00;;;12.58;51.61
62978;BME280;49073;42.352;23.808;2022-09-20T17:43:18;94728.22;;;12.57;52.67
62978;BME280;49073;42.352;23.808;2022-09-20T17:46:25;94734.53;;;12.42;53.18
62978;BME280;49073;42.352;23.808;2022-09-20T17:49:27;94732.78;;;12.22;53.36
62978;BME280;49073;42.352;23.808;2022-09-20T17:52:29;94740.00;;;12.22;53.26
62978;BME280;49073;42.352;23.808;2022-09-20T17:55:29;94741.31;;;12.35;52.95
62978;BME280;49073;42.352;23.808;2022-09-20T17:58:33;94745.59;;;12.40;52.59
62978;BME280;49073;42.352;23.808;2022-09-20T18:01:35;94744.94;;;12.50;52.00
62978;BME280;49073;42.352;23.808;2022-09-20T18:04:37;94746.84;;;12.50;52.21
62978;BME280;49073;42.352;23.808;2022-09-20T18:07:37;94747.19;;;12.45;52.02
62978;BME280;49073;42.352;23.808;2022-09-20T18:10:38;94748.25;;;12.40;53.48
62978;BME280;49073;42.352;23.808;2022-09-20T18:13:38;94756.34;;;12.44;53.67
62978;BME280;49073;42.352;23.808;2022-09-20T18:16:39;94755.47;;;12.36;53.24
62978;BME280;49073;42.352;23.808;2022-09-20T18:19:39;94759.31;;;12.39;53.62
62978;BME280;49073;42.352;23.808;2022-09-20T18:22:42;94762.56;;;12.25;53.64
62978;BME280;49073;42.352;23.808;2022-09-20T18:25:47;94763.94;;;12.11;55.05
62978;BME280;49073;42.352;23.808;2022-09-20T18:29:11;94773.09;;;11.87;56.31
62978;BME280;49073;42.352;23.808;2022-09-20T18:32:12;94779.16;;;11.84;56.50
62978;BME280;49073;42.352;23.808;2022-09-20T18:35:13;94780.56;;;11.77;56.78
62978;BME280;49073;42.352;23.808;2022-09-20T18:38:14;94776.78;;;11.78;57.26
62978;BME280;49073;42.352;23.808;2022-09-20T18:41:16;94781.28;;;11.74;57.45
62978;BME280;49073;42.352;23.808;2022-09-20T18:44:17;94785.78;;;11.70;58.24
62978;BME280;49073;42.352;23.808;2022-09-20T18:47:17;94782.44;;;11.50;58.75
62978;BME280;49073;42.352;23.808;2022-09-20T18:50:18;94790.47;;;11.30;59.06
62978;BME280;49073;42.352;23.808;2022-09-20T18:53:20;94792.47;;;11.14;59.74
62978;BME280;49073;42.352;23.808;2022-09-20T18:56:31;94793.19;;;11.11;60.36
62978;BME280;49073;42.352;23.808;2022-09-20T18:59:32;94793.88;;;11.08;59.93
62978;BME280;49073;42.352;23.808;2022-09-20T19:03:09;94787.44;;;10.89;60.33
62978;BME280;49073;42.352;23.808;2022-09-20T19:06:18;94789.47;;;10.96;61.12
62978;BME280;49073;42.352;23.808;2022-09-20T19:09:48;94785.25;;;10.95;61.14
62978;BME280;49073;42.352;23.808;2022-09-20T19:13:13;94798.25;;;10.96;61.34
62978;BME280;49073;42.352;23.808;2022-09-20T19:16:33;94791.66;;;10.70;62.11
62978;BME280;49073;42.352;23.808;2022-09-20T19:19:48;94791.38;;;10.56;61.85
62978;BME280;49073;42.352;23.808;2022-09-20T19:26:24;94796.63;;;10.52;61.51
62978;BME280;49073;42.352;23.808;2022-09-20T19:29:26;94789.88;;;10.58;61.08
62978;BME280;49073;42.352;23.808;2022-09-20T19:32:27;94797.81;;;10.74;61.91
62978;BME280;49073;42.352;23.808;2022-09-20T19:35:34;94795.09;;;10.71;61.54
62978;BME280;49073;42.352;23.808;2022-09-20T19:38:42;94798.66;;;10.79;61.86
62978;BME280;49073;42.352;23.808;2022-09-20T19:42:10;94798.88;;;10.70;61.98
62978;BME280;49073;42.352;23.808;2022-09-20T19:48:39;94799.28;;;10.52;62.29
62978;BME280;49073;42.352;23.808;2022-09-20T19:51:47;94791.50;;;10.43;62.61
62978;BME280;49073;42.352;23.808;2022-09-20T19:54:49;94795.63;;;10.41;62.55
62978;BME280;49073;42.352;23.808;2022-09-20T19:57:50;94793.63;;;10.38;62.64
62978;BME280;49073;42.352;23.808;2022-09-20T20:00:51;94799.50;;;10.43;62.24
62978;BME280;49073;42.352;23.808;2022-09-20T20:03:52;94798.63;;;10.39;62.23
62978;BME280;49073;42.352;23.808;2022-09-20T20:07:11;94801.88;;;10.48;61.07
62978;BME280;49073;42.352;23.808;2022-09-20T20:10:40;94797.16;;;10.42;61.55
62978;BME280;49073;42.352;23.808;2022-09-20T20:13:52;94800.25;;;10.28;61.73
62978;BME280;49073;42.352;23.808;2022-09-20T20:17:11;94799.41;;;10.24;62.37
62978;BME280;49073;42.352;23.808;2022-09-20T20:26:43;94798.25;;;10.05;62.60
62978;BME280;49073;42.352;23.808;2022-09-20T20:29:44;94796.63;;;10.00;62.75
62978;BME280;49073;42.352;23.808;2022-09-20T20:32:45;94797.84;;;10.03;62.50
62978;BME280;49073;42.352;23.808;2022-09-20T20:35:55;94801.78;;;10.09;61.91
62978;BME280;49073;42.352;23.808;2022-09-20T20:38:56;94811.63;;;9.73;63.42
62978;BME280;49073;42.352;23.808;2022-09-20T20:41:58;94803.59;;;9.41;64.41
62978;BME280;49073;42.352;23.808;2022-09-20T20:45:00;94796.72;;;9.24;65.50
62978;BME280;49073;42.352;23.808;2022-09-20T20:48:01;94802.75;;;9.37;65.02
62978;BME280;49073;42.352;23.808;2022-09-20T20:51:07;94808.25;;;9.44;64.89
62978;BME280;49073;42.352;23.808;2022-09-20T20:54:11;94804.22;;;9.50;64.86
62978;BME280;49073;42.352;23.808;2022-09-20T20:57:11;94803.94;;;9.55;64.97
62978;BME280;49073;42.352;23.808;2022-09-20T21:00:12;94803.69;;;9.60;64.81
62978;BME280;49073;42.352;23.808;2022-09-20T21:03:14;94808.09;;;9.53;64.81
62978;BME280;49073;42.352;23.808;2022-09-20T21:06:15;94804.31;;;9.54;64.83
62978;BME280;49073;42.352;23.808;2022-09-20T21:09:16;94806.19;;;9.53;64.37